Terminal Aerodrome Forecast
Issued by NWS Wilmington, OH

Current Version | Previous Version | Text Only | Print | Product List | Glossary Off
Versions: 1 2 3 4 5 6 7 8 9 10 11 12 13 14 15 16 17 18 19 20 21 22 23

652
FTUS41 KILN 291004 AAB
TAFCMH
TAF AMD
KCMH 291004Z 2910/3006 16007KT 5SM -RA BR SCT026 SCT060 OVC100
     FM291200 22008KT 6SM SHRA VCTS OVC025CB
     FM291600 24009KT P6SM VCSH OVC025
     FM291800 32007KT P6SM VCSH OVC050
     FM292000 08009KT P6SM VCSH OVC090
     FM292100 12009KT P6SM BKN130=

USA.gov is the U.S. government's official web portal to all federal, state and local government web resources and services.